createdAt,value
2018-05-03T00:01:55.663Z,11.10
2018-05-03T00:04:23.133Z,11.10
2018-05-03T00:06:51.448Z,11.10
2018-05-03T00:09:18.977Z,11.00
2018-05-03T00:11:47.268Z,11.00
2018-05-03T00:14:14.820Z,11.00
2018-05-03T00:16:42.346Z,11.00
2018-05-03T00:19:09.901Z,11.00
2018-05-03T00:21:37.429Z,10.90
2018-05-03T00:24:04.986Z,10.90
2018-05-03T00:26:32.508Z,10.80
2018-05-03T00:29:00.821Z,10.80
2018-05-03T00:31:28.340Z,10.70
2018-05-03T00:33:55.888Z,10.70
2018-05-03T00:36:23.408Z,10.70
2018-05-03T00:38:50.952Z,10.70
2018-05-03T00:41:18.473Z,10.70
2018-05-03T00:43:46.067Z,10.70
2018-05-03T00:46:13.617Z,10.70
2018-05-03T00:48:41.937Z,10.60
2018-05-03T00:51:10.231Z,10.60
2018-05-03T00:53:37.801Z,10.60
2018-05-03T00:56:05.324Z,10.60
2018-05-03T00:58:32.875Z,10.60
2018-05-03T01:01:00.396Z,10.60
2018-05-03T01:03:28.724Z,10.60
2018-05-03T01:05:56.243Z,10.50
2018-05-03T01:08:24.569Z,10.60
2018-05-03T01:10:52.095Z,10.50
2018-05-03T01:13:19.642Z,10.60
2018-05-03T01:15:47.936Z,10.60
2018-05-03T01:18:15.466Z,10.60
2018-05-03T01:20:43.787Z,10.70
2018-05-03T01:23:11.304Z,10.60
2018-05-03T01:25:38.860Z,10.70
2018-05-03T01:28:06.398Z,10.70
2018-05-03T01:30:33.950Z,10.70
2018-05-03T01:33:01.476Z,10.70
2018-05-03T01:38:34.730Z,10.70
2018-05-03T01:41:02.272Z,10.70
2018-05-03T01:43:29.797Z,10.70
2018-05-03T01:45:58.112Z,10.80
2018-05-03T01:48:25.632Z,10.70
2018-05-03T01:50:53.946Z,10.70
2018-05-03T01:53:21.463Z,10.70
2018-05-03T01:55:49.772Z,10.60
2018-05-03T01:58:17.302Z,10.60
2018-05-03T02:00:45.616Z,10.60
2018-05-03T02:03:13.144Z,10.60
2018-05-03T02:05:41.453Z,10.50
2018-05-03T02:08:09.023Z,10.40
2018-05-03T02:10:36.540Z,10.40
2018-05-03T02:13:04.832Z,10.40
2018-05-03T02:15:32.381Z,10.30
2018-05-03T02:17:59.904Z,10.40
2018-05-03T02:20:27.444Z,10.40
2018-05-03T02:22:54.966Z,10.30
2018-05-03T02:25:22.520Z,10.30
2018-05-03T02:27:50.805Z,10.30
2018-05-03T02:30:18.355Z,10.20
2018-05-03T02:32:46.645Z,10.20
2018-05-03T02:35:14.198Z,10.20
2018-05-03T02:37:42.480Z,10.20
2018-05-03T02:40:10.024Z,10.20
2018-05-03T02:42:38.321Z,10.20
2018-05-03T02:45:05.867Z,10.10
2018-05-03T02:47:34.162Z,10.10
2018-05-03T02:50:01.710Z,10.10
2018-05-03T02:52:30.005Z,10.10
2018-05-03T02:54:57.558Z,10.10
2018-05-03T02:57:36.945Z,10.10
2018-05-03T03:00:22.077Z,10.10
2018-05-03T03:06:15.743Z,10.10
2018-05-03T03:12:27.014Z,10.10
2018-05-03T03:15:12.184Z,10.00
2018-05-03T03:17:57.338Z,10.00
2018-05-03T03:24:21.412Z,9.90
2018-05-03T03:27:07.564Z,9.90
2018-05-03T03:29:46.889Z,9.80
2018-05-03T03:32:26.304Z,9.90
2018-05-03T03:38:12.096Z,9.80
2018-05-03T03:40:52.200Z,9.70
2018-05-03T03:43:31.892Z,9.70
2018-05-03T03:45:59.445Z,9.70
2018-05-03T03:48:27.752Z,9.70
2018-05-03T03:50:55.265Z,9.70
2018-05-03T03:53:22.812Z,9.70
2018-05-03T03:55:50.333Z,9.70
2018-05-03T03:58:17.880Z,9.70
2018-05-03T04:00:45.396Z,9.80
2018-05-03T04:03:12.916Z,9.80
2018-05-03T04:05:40.455Z,9.90
2018-05-03T04:08:07.975Z,9.90
2018-05-03T04:10:35.516Z,9.90
2018-05-03T04:13:03.032Z,9.90
2018-05-03T04:15:31.346Z,10.00
2018-05-03T04:18:10.599Z,10.00
2018-05-03T04:21:02.931Z,10.00
2018-05-03T04:23:42.286Z,10.10
2018-05-03T04:26:09.837Z,10.10
2018-05-03T04:28:37.360Z,10.10
2018-05-03T04:31:04.912Z,10.20
2018-05-03T04:33:32.440Z,10.20
2018-05-03T04:35:59.993Z,10.20
2018-05-03T04:38:27.519Z,10.20
2018-05-03T04:40:55.064Z,10.30
2018-05-03T04:43:22.577Z,10.30
2018-05-03T04:45:50.180Z,10.30
2018-05-03T04:48:17.695Z,10.40
2018-05-03T04:50:45.244Z,10.40
2018-05-03T04:53:12.769Z,10.50
2018-05-03T04:55:40.316Z,10.60
2018-05-03T04:58:07.838Z,10.60
2018-05-03T05:00:35.401Z,10.60
2018-05-03T05:03:03.358Z,10.60
2018-05-03T05:05:32.007Z,10.70
2018-05-03T05:08:00.628Z,10.70
2018-05-03T05:10:28.206Z,10.70
2018-05-03T05:12:55.724Z,10.70
2018-05-03T05:15:23.273Z,10.80
2018-05-03T05:17:50.875Z,10.80
2018-05-03T05:20:18.385Z,10.80
2018-05-03T05:22:45.899Z,10.80
2018-05-03T05:25:13.454Z,10.90
2018-05-03T05:27:40.971Z,10.90
2018-05-03T05:30:08.521Z,11.00
2018-05-03T05:32:36.045Z,11.00
2018-05-03T05:35:04.355Z,11.10
2018-05-03T05:37:31.880Z,11.10
2018-05-03T05:39:59.405Z,11.10
2018-05-03T05:42:26.960Z,11.20
2018-05-03T05:44:55.248Z,11.20
2018-05-03T05:47:23.563Z,11.20
2018-05-03T05:49:51.855Z,11.30
2018-05-03T05:52:20.163Z,11.30
2018-05-03T05:54:47.685Z,11.20
2018-05-03T05:57:15.995Z,11.40
2018-05-03T05:59:44.761Z,11.30
2018-05-03T06:02:13.421Z,11.40
2018-05-03T06:04:40.944Z,11.40
2018-05-03T06:07:08.486Z,11.40
2018-05-03T06:09:36.001Z,11.40
2018-05-03T06:12:03.544Z,11.40
2018-05-03T06:14:31.067Z,11.40
2018-05-03T06:16:58.622Z,11.40
2018-05-03T06:19:26.155Z,11.50
2018-05-03T06:21:54.464Z,11.60
2018-05-03T06:24:21.988Z,11.60
2018-05-03T06:26:50.301Z,11.70
2018-05-03T06:29:17.827Z,11.70
2018-05-03T06:31:46.132Z,11.80
2018-05-03T06:34:13.647Z,11.70
2018-05-03T06:36:41.188Z,11.80
2018-05-03T06:39:08.712Z,11.80
2018-05-03T06:41:36.260Z,11.80
2018-05-03T06:44:03.780Z,11.90
2018-05-03T06:46:31.330Z,12.00
2018-05-03T06:48:58.862Z,12.00
2018-05-03T06:51:26.409Z,12.10
2018-05-03T06:53:53.929Z,12.10
2018-05-03T06:56:21.483Z,12.10
2018-05-03T06:58:49.000Z,12.20
2018-05-03T07:01:16.552Z,12.20
2018-05-03T07:03:44.070Z,12.30
2018-05-03T07:06:11.611Z,12.30
2018-05-03T07:08:39.142Z,12.40
2018-05-03T07:11:06.687Z,12.40
2018-05-03T07:13:34.220Z,12.40
2018-05-03T07:16:02.496Z,12.30
2018-05-03T07:18:30.825Z,12.30
2018-05-03T07:20:58.349Z,12.30
2018-05-03T07:23:26.668Z,12.30
2018-05-03T07:25:54.197Z,12.30
2018-05-03T07:28:21.757Z,12.40
2018-05-03T07:30:49.280Z,12.40
2018-05-03T07:33:16.824Z,12.40
2018-05-03T07:35:44.351Z,12.40
2018-05-03T07:38:11.904Z,12.50
2018-05-03T07:40:39.452Z,12.60
2018-05-03T07:43:07.004Z,12.70
2018-05-03T07:45:35.288Z,12.90
2018-05-03T07:48:03.022Z,12.90
2018-05-03T07:50:30.382Z,12.90
2018-05-03T07:52:57.932Z,13.00
2018-05-03T07:55:25.451Z,13.10
2018-05-03T07:57:53.000Z,13.10
2018-05-03T08:00:20.515Z,13.10
2018-05-03T08:02:48.068Z,13.20
2018-05-03T08:05:15.589Z,13.20
2018-05-03T08:07:43.147Z,13.20
2018-05-03T08:10:10.663Z,13.30
2018-05-03T08:12:39.026Z,13.30
2018-05-03T08:15:06.528Z,13.20
2018-05-03T08:17:34.076Z,13.30
2018-05-03T08:20:02.373Z,13.50
2018-05-03T08:22:29.960Z,13.50
2018-05-03T08:24:57.467Z,13.60
2018-05-03T08:27:25.776Z,13.80
2018-05-03T08:29:53.301Z,13.70
2018-05-03T08:32:21.620Z,13.90
2018-05-03T08:34:49.140Z,13.90
2018-05-03T08:37:17.448Z,14.10
2018-05-03T08:39:44.963Z,14.10
2018-05-03T08:42:12.520Z,14.30
2018-05-03T08:44:40.052Z,14.40
2018-05-03T08:47:07.600Z,14.60
2018-05-03T08:49:35.151Z,14.60
2018-05-03T08:52:02.667Z,14.70
2018-05-03T08:54:30.216Z,14.80
2018-05-03T08:56:57.740Z,14.80
2018-05-03T08:59:25.284Z,14.90
2018-05-03T09:01:52.877Z,15.00
2018-05-03T09:04:21.144Z,15.20
2018-05-03T09:06:48.656Z,15.10
2018-05-03T09:09:16.973Z,15.40
2018-05-03T09:11:44.504Z,15.30
2018-05-03T09:14:12.821Z,15.70
2018-05-03T09:16:40.336Z,15.60
2018-05-03T09:19:08.644Z,15.90
2018-05-03T09:21:36.177Z,15.90
2018-05-03T09:24:04.488Z,15.90
2018-05-03T09:26:32.011Z,15.90
2018-05-03T09:29:00.348Z,15.90
2018-05-03T09:31:27.888Z,15.90
2018-05-03T09:33:55.408Z,16.10
2018-05-03T09:36:23.724Z,16.40
2018-05-03T09:38:51.245Z,16.30
2018-05-03T09:41:19.561Z,16.70
2018-05-03T09:43:47.075Z,16.60
2018-05-03T09:46:14.625Z,16.70
2018-05-03T09:48:42.143Z,16.60
2018-05-03T09:51:09.689Z,16.50
2018-05-03T09:53:37.203Z,16.50
2018-05-03T09:56:04.753Z,16.40
2018-05-03T09:58:32.281Z,16.50
2018-05-03T10:00:59.827Z,16.60
2018-05-03T10:03:27.352Z,16.80
2018-05-03T10:05:54.943Z,16.90
2018-05-03T10:08:23.212Z,17.30
2018-05-03T10:10:51.516Z,17.40
2018-05-03T10:13:19.079Z,17.40
2018-05-03T10:15:47.371Z,17.70
2018-05-03T10:18:14.897Z,17.60
2018-05-03T10:20:42.419Z,17.80
2018-05-03T10:23:09.969Z,17.90
2018-05-03T10:25:37.493Z,17.90
2018-05-03T10:28:05.040Z,18.00
2018-05-03T10:30:32.564Z,18.10
2018-05-03T10:33:00.113Z,18.30
2018-05-03T10:35:27.635Z,18.40
2018-05-03T10:37:55.179Z,18.50
2018-05-03T10:40:22.700Z,18.50
2018-05-03T10:42:50.245Z,18.70
2018-05-03T10:45:17.765Z,18.80
2018-05-03T10:47:45.319Z,18.90
2018-05-03T10:50:12.852Z,19.00
2018-05-03T10:52:41.177Z,19.20
2018-05-03T10:55:08.693Z,19.10
2018-05-03T10:57:37.000Z,19.10
2018-05-03T11:00:04.515Z,19.10
2018-05-03T11:02:32.052Z,19.10
2018-05-03T11:04:59.574Z,19.00
2018-05-03T11:07:27.186Z,18.90
2018-05-03T11:09:54.707Z,18.80
2018-05-03T11:12:22.254Z,18.90
2018-05-03T11:14:49.776Z,19.00
2018-05-03T11:17:17.317Z,19.10
2018-05-03T11:19:44.864Z,19.30
2018-05-03T11:22:12.385Z,19.60
2018-05-03T11:24:39.935Z,19.80
2018-05-03T11:27:08.218Z,20.10
2018-05-03T11:29:36.529Z,20.10
2018-05-03T11:32:04.900Z,19.60
2018-05-03T11:34:32.484Z,19.50
2018-05-03T11:37:00.058Z,19.00
2018-05-03T11:39:27.566Z,19.10
2018-05-03T11:41:55.090Z,19.30
2018-05-03T11:44:22.741Z,19.50
2018-05-03T11:46:50.901Z,19.80
2018-05-03T11:49:19.228Z,19.90
2018-05-03T11:51:46.872Z,20.00
2018-05-03T11:54:14.412Z,20.00
2018-05-03T11:56:41.927Z,20.10
2018-05-03T11:59:09.569Z,20.20
2018-05-03T12:01:38.003Z,20.30
2018-05-03T12:04:05.656Z,20.10
2018-05-03T12:06:34.000Z,20.10
2018-05-03T12:09:02.441Z,20.00
2018-05-03T12:11:30.830Z,19.90
2018-05-03T12:13:58.468Z,19.80
2018-05-03T12:16:26.000Z,19.70
2018-05-03T12:18:53.559Z,19.70
2018-05-03T12:21:21.072Z,19.90
2018-05-03T12:23:48.585Z,20.10
2018-05-03T12:26:16.131Z,20.10
2018-05-03T12:28:43.649Z,20.20
2018-05-03T12:31:11.197Z,20.20
2018-05-03T12:33:38.720Z,20.00
2018-05-03T12:36:06.267Z,20.00
2018-05-03T12:38:33.789Z,19.80
2018-05-03T12:41:01.332Z,19.70
2018-05-03T12:43:28.854Z,19.60
2018-05-03T12:45:56.396Z,19.60
2018-05-03T12:48:24.676Z,19.40
2018-05-03T12:50:52.983Z,19.40
2018-05-03T12:53:20.495Z,19.30
2018-05-03T12:55:48.803Z,19.50
2018-05-03T12:58:16.327Z,19.40
2018-05-03T13:00:43.892Z,19.40
2018-05-03T13:03:11.409Z,19.40
2018-05-03T13:05:38.997Z,19.60
2018-05-03T13:08:06.483Z,19.80
2018-05-03T13:10:34.796Z,20.30
2018-05-03T13:13:02.326Z,20.20
2018-05-03T13:15:29.881Z,20.40
2018-05-03T13:17:58.159Z,20.70
2018-05-03T13:20:26.468Z,20.70
2018-05-03T13:22:53.989Z,20.70
2018-05-03T13:25:22.305Z,21.00
2018-05-03T13:27:49.814Z,21.00
2018-05-03T13:30:17.328Z,21.10
2018-05-03T13:32:44.868Z,21.20
2018-05-03T13:35:12.388Z,21.30
2018-05-03T13:37:39.984Z,21.30
2018-05-03T13:40:07.511Z,21.10
2018-05-03T13:42:35.061Z,20.90
2018-05-03T13:45:02.588Z,20.70
2018-05-03T13:47:30.159Z,20.70
2018-05-03T13:49:57.668Z,20.80
2018-05-03T13:52:25.986Z,21.30
2018-05-03T13:54:53.509Z,21.20
2018-05-03T13:57:21.821Z,22.00
2018-05-03T13:59:49.354Z,22.00
2018-05-03T14:02:17.660Z,21.90
2018-05-03T14:04:45.566Z,21.90
2018-05-03T14:07:13.144Z,21.90
2018-05-03T14:09:40.648Z,22.00
2018-05-03T14:12:08.197Z,22.20
2018-05-03T14:14:35.712Z,22.40
2018-05-03T14:17:03.262Z,22.50
2018-05-03T14:19:30.779Z,22.70
2018-05-03T14:21:58.325Z,23.00
2018-05-03T14:24:25.844Z,23.20
2018-05-03T14:26:53.380Z,23.40
2018-05-03T14:29:20.897Z,23.50
2018-05-03T14:31:49.205Z,23.40
2018-05-03T14:34:16.729Z,23.30
2018-05-03T14:36:45.040Z,23.30
2018-05-03T14:39:12.556Z,23.30
2018-05-03T14:41:40.100Z,23.30
2018-05-03T14:44:07.618Z,23.30
2018-05-03T14:46:35.164Z,23.20
2018-05-03T14:49:02.684Z,23.00
2018-05-03T14:51:30.232Z,22.90
2018-05-03T14:53:57.752Z,23.00
2018-05-03T14:56:25.320Z,23.10
2018-05-03T14:58:52.951Z,23.50
2018-05-03T15:01:21.269Z,24.30
2018-05-03T15:03:48.808Z,24.20
2018-05-03T15:06:16.324Z,24.50
2018-05-03T15:08:43.864Z,24.60
2018-05-03T15:11:11.385Z,24.40
2018-05-03T15:13:38.934Z,24.30
2018-05-03T15:16:07.241Z,23.70
2018-05-03T15:18:34.776Z,23.70
2018-05-03T15:21:02.300Z,23.50
2018-05-03T15:23:29.844Z,23.50
2018-05-03T15:25:57.368Z,23.30
2018-05-03T15:28:24.908Z,23.20
2018-05-03T15:30:53.188Z,23.40
2018-05-03T15:33:20.736Z,23.40
2018-05-03T15:35:49.018Z,23.10
2018-05-03T15:38:17.328Z,22.90
2018-05-03T15:40:44.848Z,22.90
2018-05-03T15:43:13.159Z,23.00
2018-05-03T15:45:40.677Z,23.00
2018-05-03T15:48:08.229Z,23.10
2018-05-03T15:50:35.752Z,23.10
2018-05-03T15:53:03.296Z,23.00
2018-05-03T15:55:30.812Z,22.90
2018-05-03T15:57:58.361Z,22.90
2018-05-03T16:00:25.881Z,22.90
2018-05-03T16:02:53.433Z,22.80
2018-05-03T16:05:20.948Z,22.60
2018-05-03T16:07:48.491Z,22.50
2018-05-03T16:10:16.013Z,22.40
2018-05-03T16:12:43.564Z,22.40
2018-05-03T16:15:11.076Z,22.30
2018-05-03T16:17:38.620Z,22.20
2018-05-03T16:20:06.911Z,22.00
2018-05-03T16:22:34.457Z,22.00
2018-05-03T16:25:02.047Z,21.90
2018-05-03T16:27:29.538Z,22.10
2018-05-03T16:29:57.056Z,22.30
2018-05-03T16:32:24.620Z,22.40
2018-05-03T16:34:52.132Z,22.30
2018-05-03T16:37:19.711Z,22.20
2018-05-03T16:39:47.978Z,22.10
2018-05-03T16:42:15.495Z,22.10
2018-05-03T16:44:43.807Z,22.00
2018-05-03T16:47:11.320Z,22.00
2018-05-03T16:49:38.859Z,22.00
2018-05-03T16:52:06.381Z,21.90
2018-05-03T16:54:33.936Z,21.70
2018-05-03T16:57:01.471Z,21.50
2018-05-03T16:59:29.801Z,21.20
2018-05-03T17:01:57.325Z,21.10
2018-05-03T17:04:25.673Z,21.10
2018-05-03T17:06:53.188Z,21.10
2018-05-03T17:09:20.756Z,21.10
2018-05-03T17:11:48.271Z,21.10
2018-05-03T17:14:16.625Z,21.00
2018-05-03T17:16:44.110Z,20.90
2018-05-03T17:19:12.726Z,20.90
2018-05-03T17:21:40.248Z,20.90
2018-05-03T17:24:07.787Z,20.90
2018-05-03T17:26:35.308Z,20.90
2018-05-03T17:29:02.856Z,20.90
2018-05-03T17:31:30.379Z,21.00
2018-05-03T17:33:57.932Z,21.00
2018-05-03T17:36:25.448Z,21.10
2018-05-03T17:38:53.018Z,21.20
2018-05-03T17:41:20.529Z,21.60
2018-05-03T17:43:48.838Z,22.30
2018-05-03T17:46:16.360Z,22.20
2018-05-03T17:48:43.905Z,22.50
2018-05-03T17:51:11.442Z,22.70
2018-05-03T17:53:39.463Z,22.90
2018-05-03T17:56:07.040Z,22.90
2018-05-03T17:58:34.583Z,22.40
2018-05-03T18:01:02.868Z,21.60
2018-05-03T18:03:31.179Z,21.30
2018-05-03T18:05:58.695Z,21.20
2018-05-03T18:08:27.007Z,20.70
2018-05-03T18:10:54.536Z,20.60
2018-05-03T18:13:22.820Z,20.30
2018-05-03T18:15:51.134Z,20.10
2018-05-03T18:18:18.661Z,20.00
2018-05-03T18:20:46.992Z,19.80
2018-05-03T18:23:14.541Z,19.70
2018-05-03T18:25:42.085Z,19.60
2018-05-03T18:28:09.656Z,19.40
2018-05-03T18:30:37.173Z,19.20
2018-05-03T18:33:05.743Z,19.00
2018-05-03T18:35:33.288Z,18.90
2018-05-03T18:38:00.810Z,18.80
2018-05-03T18:40:28.351Z,18.70
2018-05-03T18:42:55.867Z,18.50
2018-05-03T18:45:23.420Z,18.40
2018-05-03T18:47:50.940Z,18.30
2018-05-03T18:50:18.489Z,18.10
2018-05-03T18:52:46.008Z,18.00
2018-05-03T18:55:13.557Z,17.90
2018-05-03T18:57:41.081Z,17.90
2018-05-03T19:00:08.632Z,17.80
2018-05-03T19:02:36.153Z,17.70
2018-05-03T19:05:03.724Z,17.50
2018-05-03T19:07:31.256Z,17.40
2018-05-03T19:09:58.822Z,17.30
2018-05-03T19:12:26.340Z,17.20
2018-05-03T19:14:53.889Z,17.10
2018-05-03T19:17:21.413Z,17.10
2018-05-03T19:19:48.964Z,17.00
2018-05-03T19:22:16.485Z,16.90
2018-05-03T19:24:44.032Z,16.80
2018-05-03T19:27:11.548Z,16.80
2018-05-03T19:29:39.096Z,16.70
2018-05-03T19:32:06.620Z,16.70
2018-05-03T19:34:34.163Z,16.70
2018-05-03T19:37:02.448Z,16.50
2018-05-03T19:39:30.013Z,16.50
2018-05-03T19:41:57.544Z,16.40
2018-05-03T19:44:25.065Z,16.40
2018-05-03T19:46:52.608Z,16.30
2018-05-03T19:49:20.152Z,16.20
2018-05-03T19:51:47.700Z,16.10
2018-05-03T19:54:15.994Z,16.00
2018-05-03T19:56:43.561Z,15.90
2018-05-03T19:59:11.105Z,15.90
2018-05-03T20:01:38.670Z,15.90
2018-05-03T20:04:06.196Z,15.80
2018-05-03T20:06:33.744Z,15.70
2018-05-03T20:09:01.267Z,15.60
2018-05-03T20:11:28.821Z,15.50
2018-05-03T20:13:56.362Z,15.40
2018-05-03T20:16:23.920Z,15.30
2018-05-03T20:18:52.216Z,15.10
2018-05-03T20:21:19.771Z,15.10
2018-05-03T20:23:47.291Z,15.10
2018-05-03T20:26:14.845Z,15.00
2018-05-03T20:28:42.539Z,15.00
2018-05-03T20:31:10.100Z,14.90
2018-05-03T20:33:37.637Z,14.90
2018-05-03T20:36:05.192Z,14.80
2018-05-03T20:38:32.724Z,14.80
2018-05-03T20:41:00.270Z,14.70
2018-05-03T20:43:27.793Z,14.60
2018-05-03T20:45:56.172Z,14.50
2018-05-03T20:48:23.750Z,14.40
2018-05-03T20:50:51.314Z,14.40
2018-05-03T20:53:18.844Z,14.30
2018-05-03T20:55:46.413Z,14.30
2018-05-03T20:58:14.726Z,14.10
2018-05-03T21:00:42.288Z,14.00
2018-05-03T21:03:09.828Z,14.00
2018-05-03T21:05:37.393Z,13.90
2018-05-03T21:08:04.928Z,13.80
2018-05-03T21:10:33.301Z,13.70
2018-05-03T21:13:01.623Z,13.60
2018-05-03T21:15:29.160Z,13.60
2018-05-03T21:17:56.712Z,13.60
2018-05-03T21:20:25.001Z,13.40
2018-05-03T21:22:52.552Z,13.40
2018-05-03T21:25:20.849Z,13.30
2018-05-03T21:27:48.401Z,13.20
2018-05-03T21:30:15.931Z,13.20
2018-05-03T21:32:43.475Z,13.10
2018-05-03T21:35:11.009Z,13.10
2018-05-03T21:37:39.335Z,13.00
2018-05-03T21:40:07.619Z,12.90
2018-05-03T21:42:35.180Z,12.90
2018-05-03T21:45:03.467Z,12.80
2018-05-03T21:47:31.785Z,12.80
2018-05-03T21:49:59.311Z,12.70
2018-05-03T21:52:26.868Z,12.70
2018-05-03T21:54:54.408Z,12.60
2018-05-03T21:57:21.965Z,12.60
2018-05-03T21:59:49.490Z,12.50
2018-05-03T22:02:17.036Z,12.50
2018-05-03T22:04:44.557Z,12.40
2018-05-03T22:07:12.872Z,12.30
2018-05-03T22:09:40.389Z,12.30
2018-05-03T22:12:08.696Z,12.20
2018-05-03T22:14:36.224Z,12.10
2018-05-03T22:17:04.544Z,12.00
2018-05-03T22:19:32.077Z,12.00
2018-05-03T22:22:00.395Z,12.00
2018-05-03T22:24:27.920Z,11.90
2018-05-03T22:26:55.666Z,11.90
2018-05-03T22:29:24.365Z,11.80
2018-05-03T22:31:52.005Z,11.80
2018-05-03T22:34:20.306Z,11.70
2018-05-03T22:36:48.824Z,11.70
2018-05-03T22:39:16.461Z,11.60
2018-05-03T22:41:44.041Z,11.60
2018-05-03T22:44:11.573Z,11.60
2018-05-03T22:46:40.857Z,11.50
2018-05-03T22:49:10.176Z,11.40
2018-05-03T22:51:39.456Z,11.30
2018-05-03T22:54:07.025Z,11.30
2018-05-03T22:56:34.557Z,11.30
2018-05-03T22:59:02.100Z,11.30
2018-05-03T23:01:29.617Z,11.20
2018-05-03T23:03:57.177Z,11.20
2018-05-03T23:06:25.485Z,11.10
2018-05-03T23:08:53.033Z,11.00
2018-05-03T23:11:20.580Z,11.00
2018-05-03T23:13:48.158Z,11.00
2018-05-03T23:16:15.705Z,11.00
2018-05-03T23:18:43.256Z,10.90
2018-05-03T23:21:10.789Z,10.90
2018-05-03T23:23:38.354Z,10.80
2018-05-03T23:26:05.892Z,10.80
2018-05-03T23:28:33.440Z,10.70
2018-05-03T23:31:00.976Z,10.70
2018-05-03T23:33:28.531Z,10.60
2018-05-03T23:35:56.046Z,10.50
2018-05-03T23:38:23.592Z,10.40
2018-05-03T23:40:51.123Z,10.30
2018-05-03T23:43:18.668Z,10.20
2018-05-03T23:45:46.193Z,10.20
2018-05-03T23:48:13.751Z,10.10
2018-05-03T23:50:41.272Z,10.10
2018-05-03T23:53:09.336Z,10.10
2018-05-03T23:55:36.852Z,10.10
2018-05-03T23:58:05.166Z,10.00
